Terminal Aerodrome Forecast
Issued by NWS

Home | Current Version | Previous Version | Text Only | Print | Product List | Glossary On
Versions: 1 2 3 4 5 6 7 8 9 10 11 12 13 14 15
000
FTUS44 KTSA 080520
TAFMLC
TAF
KMLC 080520Z 0806/0906 13005KT 5SM -RA OVC035
      TEMPO 0807/0811 2SM RA BR BKN012
     FM081100 21008KT 5SM -RA OVC012
      TEMPO 0811/0815 2SM -TSRA BKN008CB
     FM081500 25006KT 4SM -TSRA OVC015CB
     FM081800 23007KT P6SM VCTS OVC015CB
     FM082100 23007KT P6SM OVC025
     FM090000 VRB03KT P6SM BKN050=

USA.gov is the U.S. government's official web portal to all federal, state and local government web resources and services.